Latest Coastal Weather Observations for Broome

IDW60701

Issued at 8:03 pm WST Tuesday 21 February 2017 (issued every 10 minutes, with the page automatically refreshed every 10 minutes)

About coastal observations | Map of coastal stations | Coastal observations for WA | Marine services | Other Formats
Station Details ID: 003003 Name: BROOME AIRPORT Lat: -17.95 Lon: 122.24 Height: 7.42 m
Data from the previous 72 hours. | See also: Recent months at Broome
Date/Time
WST
Temp
°C
Wind Pressure Rain since
9am
mm
Weather Cloud Vis
km
Sea
Height
m
Swell
Dir  Spd
kts
Gust
kts
hPa Trend Height
m
Period
s
Dir
21/08:00pm 28.9 NW 7 9 1011.0 - 0.0 - Partly cloudy 10 - - - -
21/07:30pm 29.0 NW 9 12 1010.4 - 0.0 - Partly cloudy 10 - - - -
21/07:00pm 29.0 NW 7 9 1010.1 - 0.0 - Partly cloudy 10 - - - -
21/06:30pm 29.2 NNW 7 11 1009.9 - 0.0 - Partly cloudy 10 - - - -
21/06:00pm 29.7 NW 9 13 1009.8 - 0.0 - Mostly cloudy 10 - - - -
21/05:30pm 29.6 NW 9 14 1009.4 - 0.0 - Partly cloudy 10 - - - -
21/05:00pm 30.1 NW 11 15 1008.8 - 0.0 - - 10 - - - -
21/04:30pm 30.6 WNW 11 15 1008.6 - 0.0 - Partly cloudy 10 - - - -
21/04:00pm 30.7 WNW 11 15 1008.6 - 0.0 - - 10 - - - -
21/03:30pm 30.6 W 12 16 1008.6 - 0.0 - Mostly clear 10 - - - -
21/03:00pm 31.5 WNW 11 16 1008.4 - 0.0 - Mostly clear 10 - - - -
21/02:30pm 31.1 W 12 16 1008.7 - 0.0 - Mostly clear 10 - - - -
21/02:00pm 30.8 W 12 17 1009.0 - 0.0 - Mostly clear 10 - - - -
21/01:30pm 30.9 W 13 16 1009.1 - 0.0 - Mostly clear 10 - - - -
21/01:00pm 30.9 W 12 17 1009.4 - 0.0 - Mostly clear 10 - - - -
21/12:30pm 31.0 WNW 11 15 1009.9 - 0.0 - Mostly clear 10 - - - -
21/12:00pm 30.7 WNW 10 14 1010.3 - 0.0 - Mostly clear 10 - - - -
21/11:30am 31.3 WNW 10 13 1010.9 - 0.0 - Mostly clear 10 - - - -
21/11:00am 30.8 WNW 9 13 1011.3 - 0.0 - Mostly clear 10 - - - -
21/10:30am 30.8 NW 9 12 1011.7 - 0.0 - Partly cloudy 10 - - - -
21/10:00am 30.5 WNW 8 12 1011.8 - 0.0 - Partly cloudy 10 - - - -
21/09:30am 30.5 NW 7 10 1012.0 - 0.0 - Partly cloudy 10 - - - -
21/09:00am 30.2 WNW 7 11 1012.0 - 0.0 - Partly cloudy 10 - - - -
21/08:30am 30.3 WNW 7 9 1011.9 - 0.0 - Partly cloudy 10 - - - -
21/08:00am 30.0 WNW 6 8 1011.6 - 0.0 - Partly cloudy 10 - - - -
21/07:30am 29.4 W 8 10 1011.4 - 0.0 - Partly cloudy 10 - - - -
21/07:00am 29.2 WNW 6 9 1011.1 - 0.0 - Partly cloudy 10 - - - -
21/06:30am 28.5 WNW 4 6 1010.6 - 0.0 - Partly cloudy 10 - - - -
21/06:00am 27.7 WNW 4 5 1010.1 - 0.0 - Mostly clear 10 - - - -
21/05:30am 27.7 WNW 5 6 1009.7 - 0.0 - Partly cloudy 10 - - - -
21/05:00am 27.7 W 5 7 1009.3 - 0.0 - - 10 - - - -
21/04:30am 27.5 WNW 4 5 1009.0 - 0.0 - Partly cloudy 10 - - - -
21/04:00am 27.7 WNW 2 5 1009.0 - 0.0 - Partly cloudy 10 - - - -
21/03:30am 27.9 CALM 0 0 1009.0 - 0.0 - Partly cloudy 10 - - - -
21/03:00am 27.8 CALM 0 0 1009.0 - 0.0 - Partly cloudy 10 - - - -
21/02:30am 27.7 CALM 0 0 1009.1 - 0.0 - Partly cloudy 10 - - - -
21/02:00am 27.7 CALM 0 0 1009.0 - 0.0 - - 10 - - - -
21/01:30am 27.8 W 4 6 1009.0 - 0.0 - - 10 - - - -
21/01:00am 27.9 SW 5 6 1009.3 - 0.0 - - 10 - - - -
21/12:30am 27.9 W 3 5 1009.5 - 0.0 - - 10 - - - -
21/12:00am 27.9 WNW 4 5 1009.5 - 0.0 - Mostly clear 10 - - - -
 
Date/Time
WST
Temp
°C
Wind Pressure Rain since
9am
mm
Weather Cloud Vis
km
Sea
Height
m
Swell
Dir  Spd
kts
Gust
kts
hPa Trend Height
m
Period
s
Dir
20/11:30pm 27.9 NW 2 5 1009.8 - 0.0 - - 10 - - - -
20/11:00pm 28.1 WNW 4 5 1010.0 - 0.0 - - 10 - - - -
20/10:30pm 28.2 NW 2 4 1010.2 - 0.0 - - 10 - - - -
20/10:00pm 28.4 WNW 4 6 1010.0 - 0.0 - Partly cloudy 10 - - - -
20/09:30pm 28.5 WNW 6 8 1009.9 - 0.0 - Partly cloudy 10 - - - -
20/09:00pm 28.6 NW 5 6 1009.8 - 0.0 - - 10 - - - -
20/08:30pm 28.7 WNW 6 7 1009.8 - 0.0 - Partly cloudy 10 - - - -
20/08:00pm 28.9 WSW 5 6 1009.8 - 0.0 - Partly cloudy 10 - - - -
20/07:30pm 28.9 W 6 9 1009.6 - 0.0 - Partly cloudy 10 - - - -
20/07:00pm 28.9 WNW 7 12 1008.8 - 0.0 - Partly cloudy 10 - - - -
20/06:30pm 29.1 WNW 8 11 1008.6 - 0.0 - Partly cloudy 10 - - - -
20/06:00pm 29.5 W 9 13 1008.3 - 0.0 - Mostly clear 10 - - - -
20/05:30pm 29.7 WNW 12 15 1007.6 - 0.0 - Partly cloudy 10 - - - -
20/05:00pm 30.1 W 12 17 1006.7 - 0.0 - Partly cloudy 10 - - - -
20/04:30pm 30.6 WNW 12 17 1006.9 - 0.0 - Partly cloudy 10 - - - -
20/04:00pm 31.1 W 11 15 1006.9 - 0.0 - - 10 - - - -
20/03:30pm 31.2 W 12 16 1006.8 - 0.0 - Mostly clear 10 - - - -
20/03:00pm 31.3 W 11 15 1006.8 - 0.0 - Mostly clear 10 - - - -
20/02:30pm 31.1 W 11 15 1006.9 - 0.0 - Mostly clear 10 - - - -
20/02:00pm 31.2 WNW 8 13 1007.2 - 0.0 - Partly cloudy 10 - - - -
20/01:30pm 30.8 W 9 13 1007.4 - 0.0 - Partly cloudy 10 - - - -
20/01:00pm 31.3 WNW 9 13 1007.7 - 0.0 - Partly cloudy 10 - - - -
20/12:30pm 30.8 WNW 8 13 1008.1 - 0.0 - Partly cloudy 10 - - - -
20/12:00pm 30.7 W 8 12 1008.3 - 0.0 - Cloudy 10 - - - -
20/11:30am 31.0 W 8 12 1008.7 - 0.0 - Partly cloudy 10 - - - -
20/11:00am 31.2 W 7 11 1009.1 - 0.0 - Mostly clear 10 - - - -
20/10:30am 30.4 WNW 10 14 1009.3 - 0.0 - Mostly clear 10 - - - -
20/10:00am 30.3 W 10 13 1009.4 - 0.0 - Partly cloudy 10 - - - -
20/09:30am 30.6 W 9 13 1009.5 - 0.0 - Mostly clear 10 - - - -
20/09:00am 30.3 W 9 13 1009.6 - 0.0 - Mostly clear 10 - - - -
20/08:30am 29.5 WNW 8 10 1009.9 - 0.0 - Mostly clear 10 - - - -
20/08:00am 29.3 WNW 8 10 1009.8 - 0.0 - Mostly clear 10 - - - -
20/07:30am 29.0 WNW 7 9 1009.8 - 0.0 - Partly cloudy 10 - - - -
20/07:00am 28.3 NW 6 8 1009.7 - 0.0 - Partly cloudy 10 - - - -
20/06:30am 27.9 WNW 7 10 1009.2 - 0.0 - - 10 - - - -
20/06:00am 27.3 WNW 7 10 1008.7 - 0.0 - - 10 - - - -
20/05:30am 27.3 WNW 8 11 1008.2 - 0.0 - - 10 - - - -
20/05:00am 27.3 NW 10 15 1008.2 - 0.0 - - 10 - - - -
20/04:30am 26.7 NNW 6 10 1008.5 - 0.0 - - 10 - - - -
20/04:00am 25.4 NNW 5 7 1008.3 - 0.0 - - 10 - - - -
20/03:30am 24.5 NNW 8 12 1008.4 - 0.0 - - 10 - - - -
20/03:00am 24.4 NNW 10 13 1008.6 - 0.0 - - 10 - - - -
20/02:30am 24.4 N 8 13 1009.3 - 0.0 - Partly cloudy 10 - - - -
20/02:11am 25.3 ENE 15 22 1009.6 - 0.0 - Partly cloudy 10 - - - -
20/02:00am 27.5 ENE 9 11 1009.5 - 0.0 - Partly cloudy 10 - - - -
20/01:30am 28.3 WNW 7 10 1009.0 - 0.0 - Partly cloudy 10 - - - -
20/01:00am 28.3 WNW 7 9 1008.7 - 0.0 - Partly cloudy 10 - - - -
20/12:30am 28.3 WNW 8 10 1008.6 - 0.0 - Partly cloudy 10 - - - -
20/12:00am 28.3 WNW 6 8 1008.9 - 0.0 - Mostly clear 10 - - - -
 
Date/Time
WST
Temp
°C
Wind Pressure Rain since
9am
mm
Weather Cloud Vis
km
Sea
Height
m
Swell
Dir  Spd
kts
Gust
kts
hPa Trend Height
m
Period
s
Dir
19/11:30pm 28.5 WNW 6 9 1009.2 - 0.0 - Partly cloudy 10 - - - -
19/11:00pm 28.6 NW 5 8 1009.7 - 0.0 - Partly cloudy 10 - - - -
19/10:30pm 28.5 WNW 7 9 1009.7 - 0.0 - Partly cloudy 10 - - - -
19/10:00pm 28.7 WNW 6 8 1009.7 - 0.0 - Partly cloudy 10 - - - -
19/09:30pm 28.9 WNW 6 9 1009.6 - 0.0 - Partly cloudy 10 - - - -
19/09:00pm 28.8 WNW 8 11 1008.9 - 0.0 - Partly cloudy 10 - - - -
19/08:30pm 28.9 WNW 8 13 1008.8 - 0.0 - Partly cloudy 10 - - - -
19/08:00pm 28.9 WNW 7 11 1008.6 - 0.0 - Partly cloudy 10 - - - -
19/07:30pm 29.1 W 9 13 1008.3 - 0.0 - Partly cloudy 10 - - - -
19/07:13pm 29.2 W 11 15 1007.9 - 0.0 - Partly cloudy 10 - - - -
19/07:00pm 29.1 WNW 9 13 1007.8 - 0.0 - Partly cloudy 10 - - - -
19/06:30pm 29.2 WNW 10 14 1007.5 - 0.0 - Partly cloudy 10 - - - -
19/06:00pm 29.5 W 12 17 1007.1 - 0.0 - Partly cloudy 10 - - - -
19/05:47pm 29.8 W 11 16 1007.1 - 0.0 - Partly cloudy 10 - - - -
19/05:44pm 29.8 W 11 16 1007.1 - 0.0 - Partly cloudy 10 - - - -
19/05:30pm 30.0 WNW 12 16 1006.9 - 0.0 - Partly cloudy 10 - - - -
19/05:24pm 30.0 WNW 12 16 1006.9 - 0.0 - Partly cloudy 10 - - - -
19/05:22pm 30.0 W 12 16 1006.9 - 0.0 - Partly cloudy 10 - - - -
19/05:08pm 30.4 W 12 17 1007.0 - 0.0 - Partly cloudy 10 - - - -
19/05:00pm 30.1 W 13 17 1007.0 - 0.0 - Partly cloudy 10 - - - -
19/04:30pm 30.4 WNW 13 17 1007.0 - 0.0 - Partly cloudy 10 - - - -
19/04:00pm 31.0 W 13 18 1007.1 - 0.0 - Partly cloudy 10 - - - -
19/03:30pm 31.2 WNW 14 18 1007.2 - 0.0 - Partly cloudy 10 - - - -
19/03:00pm 30.8 W 14 19 1007.1 - 0.0 - Partly cloudy 10 - - - -
19/02:30pm 31.2 W 14 19 1007.4 - 0.0 - Partly cloudy 10 - - - -
19/02:00pm 31.6 W 13 18 1007.5 - 0.0 - Partly cloudy 10 - - - -
19/01:30pm 31.6 W 14 18 1007.7 - 0.0 - Partly cloudy 10 - - - -
19/01:00pm 31.6 W 16 21 1008.0 - 0.0 - Partly cloudy 10 - - - -
19/12:30pm 31.6 W 14 19 1008.5 - 0.0 - Partly cloudy 10 - - - -
19/12:00pm 31.8 W 13 19 1008.9 - 0.0 - Partly cloudy 10 - - - -
19/11:30am 31.5 W 13 19 1009.4 - 0.0 - Partly cloudy 10 - - - -
19/11:00am 31.0 W 14 18 1009.6 - 0.0 - Partly cloudy 10 - - - -
19/10:30am 30.9 W 13 17 1010.1 - 0.0 - Partly cloudy 10 - - - -
19/10:00am 31.4 SW 13 17 1010.5 - 0.0 - Partly cloudy 10 - - - -
19/09:30am 31.1 SW 13 19 1010.8 - 0.0 - Partly cloudy 10 - - - -
19/09:00am 30.0 SW 14 19 1010.8 - 0.0 - Mostly cloudy 10 - - - -
19/08:30am 30.1 SW 14 19 1010.9 - 0.0 - Partly cloudy 10 - - - -
19/08:00am 29.8 SW 11 17 1010.8 - 0.0 - Partly cloudy 10 - - - -
19/07:30am 29.4 SW 11 16 1010.7 - 0.0 - Partly cloudy 10 - - - -
19/07:00am 29.2 SW 11 15 1010.7 - 0.0 - Partly cloudy 10 - - - -
19/06:30am 28.7 WSW 9 13 1010.6 - 0.0 - Partly cloudy 10 - - - -
19/06:00am 28.4 SW 9 13 1010.4 - 0.0 - Mostly cloudy 10 - - - -
19/05:30am 28.4 WSW 9 13 1009.9 - 0.0 - Partly cloudy 10 - - - -
19/05:00am 28.4 WSW 9 11 1009.7 - 0.0 - Partly cloudy 10 - - - -
19/04:30am 28.4 W 9 14 1009.2 - 0.0 - Partly cloudy 10 - - - -
19/04:00am 28.4 W 10 14 1009.1 - 0.0 - Partly cloudy 10 - - - -
19/03:30am 28.4 W 10 14 1008.9 - 0.0 - Partly cloudy 10 - - - -
19/03:00am 28.4 W 9 13 1008.7 - 0.0 - Mostly clear 10 - - - -
19/02:30am 28.4 W 8 11 1008.8 - 0.0 - - 10 - - - -
19/02:00am 28.3 W 8 11 1009.0 - 0.0 - - 10 - - - -
19/01:30am 28.5 W 7 10 1009.2 - 0.0 - - 10 - - - -
19/01:00am 28.6 W 9 12 1009.6 - 0.0 - - 10 - - - -
19/12:30am 28.6 WSW 8 10 1010.0 - 0.0 - Partly cloudy 10 - - - -
19/12:00am 28.8 WSW 8 11 1010.3 - 0.0 - Mostly cloudy 10 - - - -
 
Date/Time
WST
Temp
°C
Wind Pressure Rain since
9am
mm
Weather Cloud Vis
km
Sea
Height
m
Swell
Dir  Spd
kts
Gust
kts
hPa Trend Height
m
Period
s
Dir
18/11:30pm 28.7 W 8 11 1010.3 - 0.0 - Partly cloudy 10 - - - -
18/11:00pm 28.5 WNW 7 9 1010.3 - 0.0 - - 10 - - - -
18/10:30pm 28.7 WNW 7 11 1010.4 - 0.0 - - 10 - - - -
18/10:00pm 28.7 WNW 7 10 1010.3 - 0.0 - - 10 - - - -
18/09:30pm 28.8 WNW 7 9 1010.2 - 0.0 - - 10 - - - -
18/09:00pm 29.2 W 8 11 1010.2 - 0.0 - - 10 - - - -
18/08:30pm 29.2 W 7 10 1010.2 - 0.0 - - 10 - - - -

Other Formats:

Comma delimited format used in spreadsheet applications
http://www.bom.gov.au/fwo/IDW60701/IDW60701.94203.axf

JavaScript Object Notation format (JSON) in row-major order
http://www.bom.gov.au/fwo/IDW60701/IDW60701.94203.json